This is the latest recevied weather packets stored in our database for station/object KJ4EWA. If no packets are shown the sender has not sent any weather packets the latest 10 day(s).
| Time | Temp. | Humidity | Pressure | Rain* | Wind** | Luminosity | Snow |
|---|---|---|---|---|---|---|---|
| 1777483932 | 27.78° C | 84% | 1018.2 hPa | 0 mm | - | 267 W/m² | - |
| 1777483629 | 28.89° C | 82% | 1018.3 hPa | 0 mm | - | 554 W/m² | - |
| 1777483324 | 28.33° C | 84% | 1018.4 hPa | 0 mm | - | 691 W/m² | - |
| 1777483020 | 27.78° C | 83% | 1018.6 hPa | 0 mm | - | 356 W/m² | - |
| 1777482716 | 27.78° C | 85% | 1018.6 hPa | 0 mm | - | 331 W/m² | - |
| 1777482413 | 27.78° C | 85% | 1018.5 hPa | 0 mm | - | 296 W/m² | - |
| 1777482110 | 28.33° C | 82% | 1018.8 hPa | 0 mm | - | 330 W/m² | - |
| 1777481808 | 28.89° C | 81% | 1018.7 hPa | 0 mm | - | 760 W/m² | - |
| 1777481505 | 27.78° C | 83% | 1018.6 hPa | 0 mm | - | 772 W/m² | - |
| 1777481201 | 27.22° C | 84% | 1018.8 hPa | 0 mm | - | 319 W/m² | - |
| 1777480899 | 28.89° C | 83% | 1018.9 hPa | 0 mm | - | 404 W/m² | - |
| 1777480595 | 28.89° C | 83% | 1018.7 hPa | 0 mm | - | 787 W/m² | - |
| 1777480292 | 28.33° C | 82% | 1019.1 hPa | 0 mm | - | 659 W/m² | - |
| 1777479988 | 28.33° C | 84% | 1019 hPa | 0 mm | - | 431 W/m² | - |
| 1777479685 | 27.78° C | 85% | 1019.2 hPa | 0 mm | - | 703 W/m² | - |
| 1777479383 | 27.78° C | 84% | 1019.3 hPa | 0 mm | - | 679 W/m² | - |
| 1777479079 | 27.22° C | 86% | 1019.1 hPa | 0 mm | - | 656 W/m² | - |
| 1777478776 | 28.33° C | 83% | 1019.2 hPa | 0 mm | - | 208 W/m² | - |
| 1777478472 | 28.33° C | 82% | 1019.3 hPa | 0 mm | - | 730 W/m² | - |
| 1777478169 | 28.33° C | 82% | 1019.1 hPa | 0 mm | - | 691 W/m² | - |
| 1777477865 | 28.33° C | 85% | 1019.2 hPa | 0 mm | - | 694 W/m² | - |
| 1777477561 | 27.78° C | 85% | 1019.1 hPa | 0 mm | - | 724 W/m² | - |
| 1777477257 | 27.22° C | 88% | 1019 hPa | 0 mm | - | 587 W/m² | - |
| 1777476954 | 26.11° C | 90% | 1019.2 hPa | 0 mm | - | 703 W/m² | - |
| 1777476652 | 26.67° C | 91% | 1019.5 hPa | 0 mm | - | 130 W/m² | - |
* Rain latest hour (hover to see other rain measurements)
** Current wind speed in m/s (hover to see current wind gust speed)